createdAt,value
2023-03-22T00:00:55.792Z,153.53
2023-03-22T00:01:55.820Z,152.81
2023-03-22T00:02:55.926Z,154.65
2023-03-22T00:03:55.907Z,152.42
2023-03-22T00:04:55.922Z,152.70
2023-03-22T00:05:55.914Z,152.69
2023-03-22T00:06:55.929Z,152.50
2023-03-22T00:07:55.975Z,152.92
2023-03-22T00:08:56.007Z,152.15
2023-03-22T00:09:56.040Z,152.39
2023-03-22T00:10:56.044Z,152.08
2023-03-22T00:11:56.068Z,151.50
2023-03-22T00:12:56.090Z,151.73
2023-03-22T00:13:56.135Z,152.63
2023-03-22T00:14:56.133Z,152.06
2023-03-22T00:15:56.191Z,151.31
2023-03-22T00:16:56.183Z,151.38
2023-03-22T00:17:56.212Z,151.56
2023-03-22T00:18:56.207Z,150.89
2023-03-22T00:19:56.281Z,151.78
2023-03-22T00:20:56.280Z,151.06
2023-03-22T00:21:56.329Z,151.43
2023-03-22T00:22:56.346Z,150.05
2023-03-22T00:23:56.370Z,149.38
2023-03-22T00:24:56.369Z,150.60
2023-03-22T00:25:56.433Z,148.54
2023-03-22T00:26:56.437Z,149.87
2023-03-22T00:27:56.469Z,150.60
2023-03-22T00:28:56.513Z,151.16
2023-03-22T00:29:56.540Z,150.18
2023-03-22T00:30:56.515Z,148.61
2023-03-22T00:31:56.561Z,148.25
2023-03-22T00:32:56.586Z,149.67
2023-03-22T00:33:56.620Z,148.61
2023-03-22T00:34:56.653Z,149.87
2023-03-22T00:35:56.703Z,148.62
2023-03-22T00:36:56.673Z,149.64
2023-03-22T00:37:56.710Z,149.26
2023-03-22T00:38:56.723Z,149.07
2023-03-22T00:39:56.748Z,148.56
2023-03-22T00:40:56.802Z,148.09
2023-03-22T00:41:56.808Z,147.83
2023-03-22T00:42:56.844Z,148.38
2023-03-22T00:43:56.840Z,149.02
2023-03-22T00:44:56.884Z,148.77
2023-03-22T00:45:56.965Z,149.87
2023-03-22T00:46:56.900Z,147.05
2023-03-22T00:47:57.035Z,149.11
2023-03-22T00:48:56.991Z,147.95
2023-03-22T00:49:57.005Z,148.70
2023-03-22T00:50:57.005Z,148.44
2023-03-22T00:51:57.046Z,149.01
2023-03-22T00:52:57.080Z,148.53
2023-03-22T00:53:57.202Z,147.84
2023-03-22T00:54:57.232Z,148.50
2023-03-22T00:55:57.322Z,147.36
2023-03-22T00:56:57.360Z,147.66
2023-03-22T00:57:57.434Z,147.31
2023-03-22T00:58:57.491Z,147.22
2023-03-22T00:59:57.575Z,148.85
2023-03-22T01:00:57.676Z,146.72
2023-03-22T01:01:57.717Z,148.15
2023-03-22T01:02:57.805Z,146.77
2023-03-22T01:03:57.903Z,147.44
2023-03-22T01:04:57.951Z,146.75
2023-03-22T01:05:58.022Z,146.63
2023-03-22T01:06:58.892Z,146.50
2023-03-22T01:07:58.139Z,147.71
2023-03-22T01:08:58.216Z,147.42
2023-03-22T01:09:58.292Z,148.06
2023-03-22T01:10:58.353Z,146.02
2023-03-22T01:11:58.435Z,145.83
2023-03-22T01:12:58.487Z,147.12
2023-03-22T01:13:58.558Z,147.32
2023-03-22T01:14:58.621Z,145.29
2023-03-22T01:15:58.724Z,144.83
2023-03-22T01:16:58.846Z,145.24
2023-03-22T01:17:58.837Z,145.58
2023-03-22T01:18:58.920Z,145.38
2023-03-22T01:19:58.962Z,145.47
2023-03-22T01:20:59.043Z,144.69
2023-03-22T01:21:59.127Z,145.45
2023-03-22T01:22:59.158Z,145.32
2023-03-22T01:23:59.268Z,145.27
2023-03-22T01:24:59.328Z,144.27
2023-03-22T01:25:59.410Z,144.17
2023-03-22T01:26:59.459Z,146.26
2023-03-22T01:27:59.572Z,144.69
2023-03-22T01:28:59.614Z,145.89
2023-03-22T01:29:59.691Z,144.23
2023-03-22T01:30:59.748Z,143.70
2023-03-22T01:31:59.814Z,144.29
2023-03-22T01:32:59.876Z,144.33
2023-03-22T01:34:00.002Z,144.45
2023-03-22T01:35:00.078Z,144.29
2023-03-22T01:36:00.157Z,143.32
2023-03-22T01:37:00.193Z,144.10
2023-03-22T01:38:00.218Z,144.37
2023-03-22T02:33:04.300Z,136.25
2023-03-22T02:34:04.359Z,136.15
2023-03-22T02:35:04.430Z,137.37
2023-03-22T02:36:04.527Z,136.09
2023-03-22T02:37:04.541Z,136.46
2023-03-22T02:38:04.594Z,135.98
2023-03-22T02:39:04.706Z,135.83
2023-03-22T02:40:04.779Z,136.73
2023-03-22T02:41:04.855Z,135.24
2023-03-22T02:42:04.917Z,136.62
2023-03-22T02:43:04.973Z,135.94
2023-03-22T02:44:05.045Z,135.99
2023-03-22T02:45:05.156Z,135.64
2023-03-22T02:46:05.202Z,135.97
2023-03-22T02:47:05.277Z,135.52
2023-03-22T02:48:05.423Z,135.52
2023-03-22T02:49:05.421Z,135.36
2023-03-22T02:50:05.498Z,134.92
2023-03-22T02:51:05.548Z,133.83
2023-03-22T02:52:05.629Z,134.69
2023-03-22T02:53:05.694Z,134.17
2023-03-22T02:54:05.785Z,134.32
2023-03-22T02:55:05.831Z,133.75
2023-03-22T02:56:05.950Z,134.08
2023-03-22T02:57:06.028Z,134.09
2023-03-22T02:58:06.105Z,134.51
2023-03-22T02:59:06.198Z,134.83
2023-03-22T03:00:06.246Z,135.24
2023-03-22T03:01:06.378Z,133.81
2023-03-22T03:02:06.457Z,133.21
2023-03-22T03:03:06.422Z,133.86
2023-03-22T03:04:06.496Z,133.01
2023-03-22T03:05:06.559Z,134.15
2023-03-22T03:06:06.644Z,132.54
2023-03-22T03:07:06.699Z,133.43
2023-03-22T03:08:06.762Z,133.78
2023-03-22T03:09:06.809Z,134.80
2023-03-22T03:10:06.898Z,132.18
2023-03-22T03:11:06.947Z,133.17
2023-03-22T03:12:06.997Z,131.43
2023-03-22T03:13:07.048Z,134.88
2023-03-22T03:14:07.130Z,133.37
2023-03-22T03:15:07.147Z,134.22
2023-03-22T03:16:07.290Z,134.41
2023-03-22T03:17:07.248Z,133.32
2023-03-22T03:18:07.308Z,133.88
2023-03-22T03:19:07.354Z,134.11
2023-03-22T03:20:07.394Z,131.98
2023-03-22T03:21:07.448Z,132.85
2023-03-22T03:22:07.494Z,132.74
2023-03-22T03:23:07.533Z,132.55
2023-03-22T03:24:07.602Z,132.34
2023-03-22T03:25:07.647Z,131.33
2023-03-22T03:26:07.665Z,131.16
2023-03-22T03:27:07.728Z,132.34
2023-03-22T03:28:07.787Z,130.14
2023-03-22T03:29:07.826Z,129.62
2023-03-22T03:30:07.833Z,130.85
2023-03-22T03:31:07.888Z,130.23
2023-03-22T03:32:07.947Z,128.95
2023-03-22T03:33:07.961Z,130.02
2023-03-22T03:34:08.011Z,130.06
2023-03-22T03:35:08.073Z,128.15
2023-03-22T03:36:08.135Z,131.24
2023-03-22T03:37:08.170Z,130.88
2023-03-22T03:38:08.240Z,129.38
2023-03-22T03:39:08.275Z,129.78
2023-03-22T03:40:08.320Z,129.58
2023-03-22T03:41:08.361Z,130.12
2023-03-22T03:42:08.405Z,128.71
2023-03-22T03:43:08.422Z,127.61
2023-03-22T03:44:08.496Z,129.43
2023-03-22T03:45:08.522Z,128.84
2023-03-22T03:46:08.573Z,129.26
2023-03-22T03:47:08.566Z,128.10
2023-03-22T03:48:08.684Z,130.11
2023-03-22T03:49:08.691Z,129.24
2023-03-22T03:50:08.725Z,129.88
2023-03-22T03:51:08.742Z,130.39
2023-03-22T03:52:08.796Z,126.48
2023-03-22T03:53:08.851Z,128.82
2023-03-22T03:54:08.861Z,130.57
2023-03-22T03:55:08.936Z,127.28
2023-03-22T03:56:08.941Z,126.57
2023-03-22T03:57:08.976Z,127.12
2023-03-22T03:58:09.023Z,126.19
2023-03-22T03:59:09.037Z,128.05
2023-03-22T04:00:09.076Z,128.44
2023-03-22T04:01:09.116Z,126.06
2023-03-22T04:02:09.179Z,127.01
2023-03-22T04:03:09.193Z,127.07
2023-03-22T04:04:09.271Z,127.40
2023-03-22T04:05:09.285Z,128.70
2023-03-22T04:06:09.293Z,127.30
2023-03-22T04:07:09.369Z,125.87
2023-03-22T04:08:09.401Z,126.04
2023-03-22T04:09:09.437Z,125.35
2023-03-22T04:10:09.441Z,124.65
2023-03-22T04:11:09.489Z,126.45
2023-03-22T04:12:09.500Z,126.61
2023-03-22T04:13:09.532Z,124.44
2023-03-22T04:14:09.586Z,124.63
2023-03-22T04:15:09.609Z,126.37
2023-03-22T04:16:09.624Z,126.53
2023-03-22T04:17:09.654Z,126.48
2023-03-22T04:18:09.687Z,125.98
2023-03-22T04:19:09.730Z,126.56
2023-03-22T04:20:09.751Z,125.33
2023-03-22T04:21:09.789Z,125.10
2023-03-22T04:22:09.802Z,123.83
2023-03-22T04:23:09.864Z,125.48
2023-03-22T04:24:09.933Z,124.28
2023-03-22T04:25:09.938Z,124.81
2023-03-22T04:26:09.997Z,125.13
2023-03-22T04:27:10.091Z,125.40
2023-03-22T04:28:10.116Z,125.11
2023-03-22T04:29:10.157Z,124.51
2023-03-22T04:30:10.230Z,124.85
2023-03-22T04:31:10.309Z,124.72
2023-03-22T04:32:10.302Z,125.30
2023-03-22T04:33:10.943Z,124.16
2023-03-22T04:34:10.417Z,123.10
2023-03-22T04:35:10.466Z,123.74
2023-03-22T04:36:10.517Z,123.98
2023-03-22T04:37:10.555Z,123.85
2023-03-22T04:38:10.630Z,124.73
2023-03-22T04:39:10.641Z,124.65
2023-03-22T04:40:10.706Z,123.66
2023-03-22T04:41:10.736Z,124.87
2023-03-22T04:42:10.763Z,124.20
2023-03-22T04:43:13.308Z,123.17
2023-03-22T04:44:10.800Z,123.70
2023-03-22T04:45:10.833Z,124.66
2023-03-22T04:46:10.856Z,123.23
2023-03-22T04:47:10.819Z,122.65
2023-03-22T04:48:10.870Z,122.65
2023-03-22T04:49:10.872Z,124.09
2023-03-22T04:50:10.867Z,123.05
2023-03-22T04:51:10.908Z,124.65
2023-03-22T04:52:10.935Z,123.22
2023-03-22T04:53:10.925Z,124.14
2023-03-22T04:54:10.960Z,122.63
2023-03-22T04:55:10.963Z,123.05
2023-03-22T04:56:10.965Z,122.10
2023-03-22T04:57:10.973Z,122.18
2023-03-22T04:58:10.989Z,123.27
2023-03-22T04:59:11.002Z,122.28
2023-03-22T05:00:11.024Z,122.85
2023-03-22T05:01:11.049Z,122.81
2023-03-22T05:02:11.014Z,122.32
2023-03-22T05:03:11.119Z,123.57
2023-03-22T05:04:11.042Z,123.88
2023-03-22T05:05:11.043Z,122.48
2023-03-22T05:06:11.069Z,121.33
2023-03-22T05:07:11.098Z,122.69
2023-03-22T05:08:11.111Z,122.17
2023-03-22T05:09:11.110Z,122.16
2023-03-22T05:10:11.121Z,123.69
2023-03-22T05:11:11.123Z,122.99
2023-03-22T05:12:11.137Z,122.74
2023-03-22T05:13:11.135Z,123.23
2023-03-22T05:14:11.156Z,122.64
2023-03-22T05:15:11.169Z,122.25
2023-03-22T05:16:11.202Z,122.64
2023-03-22T05:17:11.158Z,123.37
2023-03-22T05:18:11.179Z,123.22
2023-03-22T05:19:11.202Z,121.92
2023-03-22T05:20:11.210Z,122.47
2023-03-22T05:21:11.223Z,123.68
2023-03-22T05:22:11.223Z,123.09
2023-03-22T05:23:11.241Z,124.33
2023-03-22T05:24:11.211Z,122.34
2023-03-22T05:25:11.245Z,122.69
2023-03-22T05:26:11.265Z,121.91
2023-03-22T05:27:11.268Z,121.68
2023-03-22T05:28:11.288Z,123.22
2023-03-22T05:29:11.282Z,123.10
2023-03-22T05:30:11.280Z,123.42
2023-03-22T05:31:11.345Z,123.15
2023-03-22T05:32:11.317Z,120.79
2023-03-22T05:33:11.341Z,120.86
2023-03-22T05:34:11.342Z,120.73
2023-03-22T05:35:11.368Z,123.77
2023-03-22T05:36:11.333Z,121.40
2023-03-22T05:37:11.369Z,122.90
2023-03-22T05:38:11.421Z,121.33
2023-03-22T05:39:11.375Z,121.67
2023-03-22T05:40:11.405Z,121.62
2023-03-22T05:41:11.424Z,122.83
2023-03-22T05:42:11.407Z,121.56
2023-03-22T05:43:11.474Z,122.66
2023-03-22T05:44:11.460Z,121.69
2023-03-22T05:45:11.449Z,121.88
2023-03-22T05:46:11.477Z,122.04
2023-03-22T05:47:11.542Z,119.17
2023-03-22T05:48:11.529Z,121.02
2023-03-22T05:49:12.230Z,121.49
2023-03-22T05:50:11.979Z,120.43
2023-03-22T05:51:11.507Z,121.29
2023-03-22T05:52:11.517Z,121.37
2023-03-22T05:53:11.550Z,120.72
2023-03-22T05:54:11.553Z,123.03
2023-03-22T05:55:11.541Z,120.68
2023-03-22T05:56:11.558Z,125.38
2023-03-22T05:57:11.577Z,122.30
2023-03-22T05:58:11.606Z,123.38
2023-03-22T05:59:11.600Z,121.14
2023-03-22T06:01:30.422Z,25.00
2023-03-22T06:02:30.394Z,25.00
2023-03-22T06:03:30.481Z,25.00
2023-03-22T06:04:30.401Z,25.00
2023-03-22T06:05:30.375Z,25.00
2023-03-22T06:06:30.355Z,25.00
2023-03-22T06:07:30.361Z,25.61
2023-03-22T06:08:30.303Z,25.29
2023-03-22T06:09:30.327Z,26.82
2023-03-22T06:10:30.287Z,25.58
2023-03-22T06:11:30.301Z,27.60
2023-03-22T06:12:30.341Z,29.74
2023-03-22T06:13:30.334Z,29.03
2023-03-22T06:14:30.236Z,29.67
2023-03-22T06:15:30.247Z,30.01
2023-03-22T06:16:30.294Z,27.22
2023-03-22T06:17:30.206Z,28.17
2023-03-22T06:18:30.190Z,28.39
2023-03-22T06:19:30.187Z,28.19
2023-03-22T06:20:30.138Z,27.03
2023-03-22T06:21:30.143Z,26.56
2023-03-22T06:22:30.144Z,25.39
2023-03-22T06:23:30.115Z,28.64
2023-03-22T06:24:30.101Z,25.00
2023-03-22T06:25:30.103Z,29.12
2023-03-22T06:26:30.054Z,24.21
2023-03-22T06:27:30.025Z,30.81
2023-03-22T06:28:30.070Z,51.82
2023-03-22T06:29:30.032Z,128.49
2023-03-22T06:30:30.070Z,228.68
2023-03-22T06:31:29.963Z,197.89
2023-03-22T06:32:29.980Z,166.48
2023-03-22T06:33:29.969Z,132.37
2023-03-22T06:34:29.938Z,123.81
2023-03-22T06:35:30.133Z,119.81
2023-03-22T06:36:29.922Z,122.77
2023-03-22T06:37:29.922Z,87.18
2023-03-22T06:38:29.913Z,92.42
2023-03-22T06:39:29.920Z,86.40
2023-03-22T06:40:30.124Z,82.53
2023-03-22T06:41:29.926Z,72.78
2023-03-22T06:42:29.897Z,93.77
2023-03-22T06:43:29.887Z,101.23
2023-03-22T06:44:29.907Z,112.16
2023-03-22T06:45:37.126Z,107.96
2023-03-22T06:46:29.995Z,108.58
2023-03-22T06:47:29.921Z,110.02
2023-03-22T06:48:29.977Z,112.33
2023-03-22T06:49:30.954Z,119.15
2023-03-22T06:50:29.899Z,131.67
2023-03-22T06:51:29.869Z,140.19
2023-03-22T06:52:29.997Z,136.18
2023-03-22T06:53:30.636Z,130.47
2023-03-22T06:54:29.863Z,136.66
2023-03-22T06:55:29.848Z,139.02
2023-03-22T06:56:30.144Z,147.32
2023-03-22T06:57:30.141Z,151.47
2023-03-22T06:58:29.859Z,151.13
2023-03-22T06:59:29.808Z,158.42
2023-03-22T07:00:29.768Z,163.37
2023-03-22T07:01:29.773Z,170.04
2023-03-22T07:02:29.710Z,177.07
2023-03-22T07:03:29.681Z,181.15
2023-03-22T07:04:29.700Z,182.83
2023-03-22T07:05:29.639Z,185.43
2023-03-22T07:06:30.116Z,186.28
2023-03-22T07:07:29.610Z,188.63
2023-03-22T07:08:29.577Z,198.34
2023-03-22T07:09:29.553Z,200.57
2023-03-22T07:10:29.541Z,204.45
2023-03-22T07:11:29.538Z,208.76
2023-03-22T07:12:29.498Z,211.30
2023-03-22T07:13:29.452Z,216.86
2023-03-22T07:14:30.293Z,215.88
2023-03-22T07:15:29.430Z,222.78
2023-03-22T07:16:29.750Z,227.03
2023-03-22T07:17:29.481Z,229.66
2023-03-22T07:18:29.487Z,239.10
2023-03-22T07:19:29.491Z,239.44
2023-03-22T07:20:29.514Z,242.84
2023-03-22T07:21:29.531Z,246.65
2023-03-22T07:22:29.512Z,250.00
2023-03-22T07:23:29.518Z,249.98
2023-03-22T07:24:29.528Z,248.83
2023-03-22T07:25:29.537Z,248.80
2023-03-22T07:26:29.529Z,250.00
2023-03-22T07:27:29.578Z,249.31
2023-03-22T07:28:29.557Z,247.34
2023-03-22T07:29:29.573Z,250.00
2023-03-22T07:30:29.588Z,247.47
2023-03-22T07:31:29.648Z,247.88
2023-03-22T07:32:29.655Z,247.95
2023-03-22T07:33:29.582Z,249.71
2023-03-22T07:34:29.572Z,250.00
2023-03-22T07:35:29.666Z,247.31
2023-03-22T07:36:29.645Z,244.53
2023-03-22T07:37:29.601Z,248.13
2023-03-22T07:38:29.667Z,139.10
2023-03-22T07:39:29.653Z,76.42
2023-03-22T07:40:29.662Z,72.67
2023-03-22T07:41:29.698Z,84.77
2023-03-22T07:42:29.694Z,103.57
2023-03-22T07:43:29.722Z,118.09
2023-03-22T07:44:29.755Z,126.81
2023-03-22T07:45:29.863Z,141.49
2023-03-22T07:46:29.824Z,149.16
2023-03-22T07:47:40.293Z,154.01
2023-03-22T07:48:30.777Z,154.07
2023-03-22T07:49:29.731Z,150.76
2023-03-22T07:50:29.763Z,143.71
2023-03-22T07:51:29.728Z,141.74
2023-03-22T07:52:29.672Z,143.51
2023-03-22T07:53:29.690Z,138.90
2023-03-22T07:54:33.717Z,134.48
2023-03-22T07:55:29.635Z,134.51
2023-03-22T07:56:29.668Z,128.81
2023-03-22T07:57:29.630Z,123.27
2023-03-22T07:58:29.594Z,121.13
2023-03-22T07:59:29.550Z,121.22
2023-03-22T08:00:29.576Z,117.01
2023-03-22T08:01:29.549Z,116.00
2023-03-22T08:02:29.516Z,113.43
2023-03-22T08:03:29.583Z,110.16
2023-03-22T08:04:29.480Z,107.18
2023-03-22T08:05:29.478Z,105.35
2023-03-22T08:06:29.470Z,107.06
2023-03-22T08:07:29.421Z,107.05
2023-03-22T08:08:29.420Z,105.62
2023-03-22T08:09:29.399Z,104.51
2023-03-22T08:10:29.357Z,99.51
2023-03-22T08:11:29.336Z,100.11
2023-03-22T08:12:29.321Z,89.87
2023-03-22T08:13:29.338Z,92.04
2023-03-22T08:14:36.356Z,100.52
2023-03-22T08:15:30.343Z,100.63
2023-03-22T08:16:29.759Z,98.31
2023-03-22T08:17:29.296Z,100.86
2023-03-22T08:18:29.247Z,97.13
2023-03-22T08:19:29.221Z,87.62
2023-03-22T08:20:29.200Z,88.06
2023-03-22T08:21:29.189Z,87.56
2023-03-22T08:22:29.178Z,89.73
2023-03-22T08:23:40.889Z,88.40
2023-03-22T08:24:30.122Z,69.37
2023-03-22T08:25:29.109Z,39.60
2023-03-22T08:26:29.084Z,5.20
2023-03-22T08:27:29.074Z,1.44
2023-03-22T08:28:29.049Z,0.00
2023-03-22T08:29:29.020Z,5.80
2023-03-22T08:30:29.028Z,19.17
2023-03-22T08:31:29.223Z,0.00
2023-03-22T08:32:29.013Z,0.00
2023-03-22T08:33:28.973Z,0.00
2023-03-22T08:34:28.980Z,0.00
2023-03-22T08:35:29.007Z,0.00
2023-03-22T08:36:29.173Z,4.72
2023-03-22T08:37:29.023Z,24.24
2023-03-22T08:38:29.040Z,21.09
2023-03-22T08:39:29.060Z,26.79
2023-03-22T08:40:29.148Z,27.95
2023-03-22T08:41:29.172Z,24.95
2023-03-22T08:42:29.208Z,25.84
2023-03-22T08:43:29.288Z,53.63
2023-03-22T08:44:29.497Z,70.66
2023-03-22T08:45:29.335Z,86.83
2023-03-22T08:46:29.440Z,98.24
2023-03-22T08:47:29.481Z,95.36
2023-03-22T08:48:29.474Z,102.27
2023-03-22T08:49:29.537Z,118.19
2023-03-22T08:50:29.599Z,128.60
2023-03-22T08:51:29.592Z,134.62
2023-03-22T08:52:29.629Z,139.76
2023-03-22T08:53:29.652Z,145.51
2023-03-22T08:54:29.667Z,147.87
2023-03-22T08:55:29.739Z,149.90
2023-03-22T08:56:29.758Z,154.69
2023-03-22T08:57:29.780Z,155.11
2023-03-22T08:58:29.834Z,157.55
2023-03-22T08:59:29.848Z,159.18
2023-03-22T09:00:42.306Z,162.08
2023-03-22T09:01:31.369Z,162.22
2023-03-22T09:02:29.891Z,162.38
2023-03-22T09:03:29.791Z,155.22
2023-03-22T09:04:29.904Z,153.71
2023-03-22T09:05:29.808Z,158.48
2023-03-22T09:06:29.810Z,162.30
2023-03-22T09:07:29.745Z,167.17
2023-03-22T09:08:29.724Z,169.64
2023-03-22T09:09:29.754Z,170.94
2023-03-22T09:10:29.708Z,171.23
2023-03-22T09:11:29.706Z,174.68
2023-03-22T09:12:29.680Z,176.30
2023-03-22T09:13:29.661Z,179.02
2023-03-22T09:14:29.620Z,182.81
2023-03-22T09:15:29.608Z,183.05
2023-03-22T09:16:29.663Z,181.82
2023-03-22T09:17:29.583Z,185.17
2023-03-22T09:18:29.551Z,183.51
2023-03-22T09:19:29.574Z,185.78
2023-03-22T09:20:29.629Z,186.57
2023-03-22T09:21:29.635Z,187.62
2023-03-22T09:22:29.682Z,180.51
2023-03-22T09:23:29.674Z,149.46
2023-03-22T09:24:29.729Z,156.28
2023-03-22T09:25:29.742Z,163.94
2023-03-22T09:26:29.754Z,167.27
2023-03-22T09:27:29.748Z,170.25
2023-03-22T09:28:29.827Z,171.40
2023-03-22T09:29:29.792Z,173.88
2023-03-22T09:30:29.812Z,176.40
2023-03-22T09:31:29.879Z,177.18
2023-03-22T09:32:30.170Z,177.86
2023-03-22T09:33:29.903Z,177.41
2023-03-22T09:34:29.935Z,175.54
2023-03-22T09:35:30.043Z,175.05
2023-03-22T09:36:30.005Z,177.28
2023-03-22T09:37:30.246Z,178.22
2023-03-22T09:38:30.077Z,179.61
2023-03-22T09:39:30.149Z,178.01
2023-03-22T09:40:30.125Z,176.50
2023-03-22T09:41:30.189Z,175.91
2023-03-22T09:42:30.713Z,176.07
2023-03-22T09:43:32.762Z,174.79
2023-03-22T09:44:30.251Z,176.32
2023-03-22T09:45:30.226Z,176.40
2023-03-22T09:46:30.231Z,176.50
2023-03-22T09:47:42.246Z,176.76
2023-03-22T09:48:31.272Z,176.96
2023-03-22T09:49:30.147Z,177.15
2023-03-22T09:50:30.122Z,161.76
2023-03-22T09:51:30.110Z,56.74
2023-03-22T09:52:30.249Z,0.00
2023-03-22T09:53:30.090Z,0.00
2023-03-22T09:54:30.144Z,0.00
2023-03-22T09:55:30.140Z,0.00
2023-03-22T09:56:30.178Z,0.00
2023-03-22T09:57:30.726Z,0.00
2023-03-22T09:58:30.332Z,0.00
2023-03-22T09:59:30.362Z,6.63
2023-03-22T10:00:30.538Z,25.31
2023-03-22T10:01:30.648Z,31.04
2023-03-22T10:02:30.558Z,29.68
2023-03-22T10:03:30.587Z,32.70
2023-03-22T10:04:30.783Z,31.88
2023-03-22T10:05:30.706Z,30.49
2023-03-22T10:06:30.726Z,36.36
2023-03-22T10:07:30.816Z,40.41
2023-03-22T10:08:30.794Z,44.32
2023-03-22T10:09:30.822Z,39.98
2023-03-22T10:10:30.868Z,37.75
2023-03-22T10:11:30.903Z,41.12
2023-03-22T10:12:31.213Z,42.36
2023-03-22T10:13:30.921Z,39.75
2023-03-22T10:14:30.930Z,35.89
2023-03-22T10:15:30.994Z,30.53
2023-03-22T10:16:31.070Z,32.11
2023-03-22T10:17:31.034Z,29.44
2023-03-22T10:18:31.072Z,25.00
2023-03-22T10:19:31.102Z,29.70
2023-03-22T10:20:31.148Z,34.45
2023-03-22T10:21:31.176Z,38.29
2023-03-22T10:22:31.203Z,33.52
2023-03-22T10:23:31.269Z,34.12
2023-03-22T10:24:31.226Z,37.60
2023-03-22T10:25:31.280Z,41.82
2023-03-22T10:26:31.280Z,29.08
2023-03-22T10:27:31.319Z,24.80
2023-03-22T10:28:31.323Z,28.17
2023-03-22T10:29:32.281Z,32.46
2023-03-22T10:30:31.370Z,36.28
2023-03-22T10:31:31.416Z,40.25
2023-03-22T10:32:31.409Z,41.08
2023-03-22T10:33:31.475Z,33.47
2023-03-22T10:34:31.453Z,34.13
2023-03-22T10:35:31.486Z,39.54
2023-03-22T10:36:31.527Z,35.50
2023-03-22T10:37:31.529Z,24.90
2023-03-22T10:38:31.538Z,25.44
2023-03-22T10:39:31.622Z,24.70
2023-03-22T10:40:31.601Z,28.20
2023-03-22T10:41:31.672Z,23.84
2023-03-22T10:42:31.724Z,37.31
2023-03-22T10:43:31.840Z,66.20
2023-03-22T10:44:31.772Z,63.35
2023-03-22T10:45:31.823Z,24.64
2023-03-22T10:46:31.894Z,18.86
2023-03-22T10:47:32.254Z,25.13
2023-03-22T10:48:32.061Z,38.53
2023-03-22T10:49:31.983Z,57.06
2023-03-22T10:50:31.981Z,70.95
2023-03-22T10:51:32.052Z,97.30
2023-03-22T10:52:32.247Z,114.49
2023-03-22T10:53:32.252Z,127.09
2023-03-22T10:54:32.226Z,140.12
2023-03-22T10:55:32.233Z,144.48
2023-03-22T10:56:33.231Z,144.79
2023-03-22T10:57:32.236Z,145.53
2023-03-22T10:58:32.222Z,149.53
2023-03-22T10:59:32.223Z,157.16
2023-03-22T11:00:32.329Z,169.43
2023-03-22T11:01:32.417Z,174.89
2023-03-22T11:02:32.397Z,178.11
2023-03-22T11:03:32.336Z,181.57
2023-03-22T11:04:32.314Z,180.40
2023-03-22T11:05:32.257Z,182.69
2023-03-22T11:06:32.207Z,178.84
2023-03-22T11:07:32.214Z,181.45
2023-03-22T11:08:32.256Z,186.60
2023-03-22T11:09:32.192Z,187.13
2023-03-22T11:10:32.292Z,187.88
2023-03-22T11:11:32.161Z,185.02
2023-03-22T11:12:32.173Z,184.69
2023-03-22T11:13:32.143Z,187.92
2023-03-22T11:14:32.160Z,188.66
2023-03-22T11:15:32.167Z,188.88
2023-03-22T11:16:32.206Z,188.96
2023-03-22T11:17:32.139Z,191.49
2023-03-22T11:18:32.159Z,188.55
2023-03-22T11:19:32.149Z,187.47
2023-03-22T11:20:32.221Z,187.93
2023-03-22T11:21:32.196Z,192.27
2023-03-22T11:22:32.248Z,192.02
2023-03-22T11:23:32.306Z,192.04
2023-03-22T11:24:32.322Z,194.03
2023-03-22T11:25:32.448Z,188.28
2023-03-22T11:26:32.906Z,193.95
2023-03-22T11:27:32.418Z,195.08
2023-03-22T11:28:32.751Z,194.19
2023-03-22T11:29:32.451Z,195.10
2023-03-22T11:30:32.516Z,195.90
2023-03-22T11:31:32.581Z,198.04
2023-03-22T11:32:32.592Z,197.83
2023-03-22T11:33:32.761Z,198.33
2023-03-22T11:34:32.649Z,198.50
2023-03-22T11:35:32.719Z,194.90
2023-03-22T11:36:32.731Z,186.28
2023-03-22T11:37:32.793Z,132.95
2023-03-22T11:38:33.233Z,82.82
2023-03-22T11:39:32.837Z,77.88
2023-03-22T11:40:32.873Z,88.00
2023-03-22T11:41:32.894Z,99.76
2023-03-22T11:42:32.881Z,112.47
2023-03-22T11:43:33.238Z,113.32
2023-03-22T11:44:32.937Z,124.07
2023-03-22T11:45:32.975Z,119.14
2023-03-22T11:46:33.029Z,115.52
2023-03-22T11:47:33.025Z,126.33
2023-03-22T11:48:33.108Z,127.86
2023-03-22T11:49:33.007Z,121.83
2023-03-22T11:50:33.018Z,128.34
2023-03-22T11:51:33.063Z,136.89
2023-03-22T11:52:33.054Z,145.15
2023-03-22T11:53:33.112Z,148.38
2023-03-22T11:54:33.106Z,155.38
2023-03-22T11:55:33.762Z,161.78
2023-03-22T11:56:33.294Z,164.63
2023-03-22T11:57:33.188Z,166.43
2023-03-22T11:58:33.275Z,167.95
2023-03-22T11:59:33.351Z,169.06
2023-03-22T12:00:33.310Z,169.22
2023-03-22T12:01:33.405Z,168.94
2023-03-22T12:02:33.541Z,168.97
2023-03-22T12:03:34.557Z,174.44
2023-03-22T12:04:33.581Z,177.60
2023-03-22T12:05:33.482Z,178.06
2023-03-22T12:06:33.524Z,180.00
2023-03-22T12:07:33.570Z,180.76
2023-03-22T12:08:33.648Z,181.85
2023-03-22T12:09:33.670Z,181.84
2023-03-22T12:10:33.788Z,183.84
2023-03-22T12:11:33.717Z,185.56
2023-03-22T12:12:33.731Z,186.90
2023-03-22T12:13:34.257Z,186.94
2023-03-22T12:14:33.837Z,188.40
2023-03-22T12:15:33.898Z,189.60
2023-03-22T12:16:33.941Z,190.00
2023-03-22T12:17:34.113Z,190.61
2023-03-22T12:18:33.965Z,191.52
2023-03-22T12:19:34.776Z,191.98
2023-03-22T12:20:34.008Z,193.59
2023-03-22T12:21:34.040Z,193.41
2023-03-22T12:22:34.073Z,194.76
2023-03-22T12:23:34.264Z,194.42
2023-03-22T12:24:34.138Z,195.27
2023-03-22T12:25:34.180Z,196.04
2023-03-22T12:26:34.203Z,196.84
2023-03-22T12:27:34.282Z,196.48
2023-03-22T12:28:34.775Z,195.78
2023-03-22T12:29:34.297Z,192.58
2023-03-22T12:30:34.317Z,193.58
2023-03-22T12:31:34.416Z,195.42
2023-03-22T12:32:34.419Z,200.12
2023-03-22T12:33:34.865Z,201.27
2023-03-22T12:34:34.449Z,203.09
2023-03-22T12:35:34.495Z,205.05
2023-03-22T12:36:34.599Z,207.34
2023-03-22T12:37:34.581Z,209.08
2023-03-22T12:38:34.787Z,209.96
2023-03-22T12:39:34.645Z,209.96
2023-03-22T12:40:34.702Z,208.39
2023-03-22T12:41:34.683Z,208.06
2023-03-22T12:42:34.918Z,211.14
2023-03-22T12:43:34.704Z,212.60
2023-03-22T12:44:34.690Z,212.53
2023-03-22T12:45:34.645Z,212.13
2023-03-22T12:46:34.718Z,212.37
2023-03-22T12:47:34.663Z,213.60
2023-03-22T12:48:34.740Z,213.25
2023-03-22T12:49:34.599Z,214.34
2023-03-22T12:50:34.574Z,214.65
2023-03-22T12:51:34.538Z,215.34
2023-03-22T12:52:44.556Z,213.82
2023-03-22T12:53:35.523Z,213.98
2023-03-22T12:54:34.516Z,214.29
2023-03-22T12:55:34.463Z,214.35
2023-03-22T12:56:34.469Z,214.83
2023-03-22T12:57:34.435Z,214.83
2023-03-22T12:58:34.415Z,215.46
2023-03-22T12:59:34.400Z,215.39
2023-03-22T13:00:34.411Z,216.80
2023-03-22T13:01:34.381Z,215.68
2023-03-22T13:02:34.448Z,216.16
2023-03-22T13:03:34.522Z,216.04
2023-03-22T13:04:34.356Z,216.04
2023-03-22T13:05:34.418Z,216.26
2023-03-22T13:06:34.457Z,215.26
2023-03-22T13:07:34.453Z,215.58
2023-03-22T13:08:34.465Z,216.25
2023-03-22T13:09:34.510Z,215.40
2023-03-22T13:10:34.525Z,215.14
2023-03-22T13:11:34.544Z,215.09
2023-03-22T13:12:34.605Z,215.37
2023-03-22T13:13:34.603Z,215.91
2023-03-22T13:14:34.603Z,216.76
2023-03-22T13:15:41.856Z,216.12
2023-03-22T13:16:35.648Z,216.21
2023-03-22T13:17:34.661Z,216.07
2023-03-22T13:18:35.284Z,216.32
2023-03-22T13:19:34.651Z,216.29
2023-03-22T13:20:34.560Z,215.14
2023-03-22T13:21:34.600Z,215.38
2023-03-22T13:22:34.504Z,214.66
2023-03-22T13:23:34.483Z,215.33
2023-03-22T13:24:34.496Z,214.61
2023-03-22T13:25:34.436Z,214.51
2023-03-22T13:26:34.455Z,214.81
2023-03-22T13:27:34.422Z,214.93
2023-03-22T13:28:34.452Z,216.03
2023-03-22T13:29:34.510Z,214.74